sensor_id;sensor_type;location;lat;lon;timestamp;temperature;humidity
14471;DHT22;7321;50.802;4.336;2022-07-09T00:00:27;20.70;99.90
14471;DHT22;7321;50.802;4.336;2022-07-09T00:02:53;20.60;99.90
14471;DHT22;7321;50.802;4.336;2022-07-09T00:05:18;20.50;99.90
14471;DHT22;7321;50.802;4.336;2022-07-09T00:07:44;20.40;99.90
14471;DHT22;7321;50.802;4.336;2022-07-09T00:10:10;20.40;99.90
14471;DHT22;7321;50.802;4.336;2022-07-09T00:12:37;20.40;99.90
14471;DHT22;7321;50.802;4.336;2022-07-09T00:15:03;20.30;99.90
14471;DHT22;7321;50.802;4.336;2022-07-09T00:17:29;20.30;99.90
14471;DHT22;7321;50.802;4.336;2022-07-09T00:19:57;20.30;99.90
14471;DHT22;7321;50.802;4.336;2022-07-09T00:22:23;20.30;99.90
14471;DHT22;7321;50.802;4.336;2022-07-09T00:24:49;20.30;99.90
14471;DHT22;7321;50.802;4.336;2022-07-09T00:27:15;20.40;99.90
14471;DHT22;7321;50.802;4.336;2022-07-09T00:29:41;20.30;99.90
14471;DHT22;7321;50.802;4.336;2022-07-09T00:32:07;20.20;99.90
14471;DHT22;7321;50.802;4.336;2022-07-09T00:34:33;20.30;99.90
14471;DHT22;7321;50.802;4.336;2022-07-09T00:36:59;20.30;99.90
14471;DHT22;7321;50.802;4.336;2022-07-09T00:39:26;20.30;99.90
14471;DHT22;7321;50.802;4.336;2022-07-09T00:42:06;20.10;99.90
14471;DHT22;7321;50.802;4.336;2022-07-09T00:44:32;20.10;99.90
14471;DHT22;7321;50.802;4.336;2022-07-09T00:46:58;20.20;99.90
14471;DHT22;7321;50.802;4.336;2022-07-09T00:49:29;20.10;99.90
14471;DHT22;7321;50.802;4.336;2022-07-09T00:51:56;20.10;99.90
14471;DHT22;7321;50.802;4.336;2022-07-09T00:54:23;20.10;99.90
14471;DHT22;7321;50.802;4.336;2022-07-09T00:56:51;20.00;99.90
14471;DHT22;7321;50.802;4.336;2022-07-09T00:59:18;20.00;99.90
14471;DHT22;7321;50.802;4.336;2022-07-09T01:01:43;19.90;99.90
14471;DHT22;7321;50.802;4.336;2022-07-09T01:04:09;19.90;99.90
14471;DHT22;7321;50.802;4.336;2022-07-09T01:06:35;19.90;99.90
14471;DHT22;7321;50.802;4.336;2022-07-09T01:09:04;19.90;99.90
14471;DHT22;7321;50.802;4.336;2022-07-09T01:11:30;19.70;99.90
14471;DHT22;7321;50.802;4.336;2022-07-09T01:13:56;19.70;99.90
14471;DHT22;7321;50.802;4.336;2022-07-09T01:16:34;19.70;99.90
14471;DHT22;7321;50.802;4.336;2022-07-09T01:19:00;19.70;99.90
14471;DHT22;7321;50.802;4.336;2022-07-09T01:21:26;19.70;99.90
14471;DHT22;7321;50.802;4.336;2022-07-09T01:23:51;19.50;99.90
14471;DHT22;7321;50.802;4.336;2022-07-09T01:26:17;19.50;99.90
14471;DHT22;7321;50.802;4.336;2022-07-09T01:28:46;19.50;99.90
14471;DHT22;7321;50.802;4.336;2022-07-09T01:31:12;19.50;99.90
14471;DHT22;7321;50.802;4.336;2022-07-09T01:33:38;19.60;99.90
14471;DHT22;7321;50.802;4.336;2022-07-09T01:36:06;19.60;99.90
14471;DHT22;7321;50.802;4.336;2022-07-09T01:38:32;19.60;99.90
14471;DHT22;7321;50.802;4.336;2022-07-09T01:40:58;19.60;99.90
14471;DHT22;7321;50.802;4.336;2022-07-09T01:43:24;19.70;99.90
14471;DHT22;7321;50.802;4.336;2022-07-09T01:45:50;19.80;99.90
14471;DHT22;7321;50.802;4.336;2022-07-09T01:48:16;19.80;99.90
14471;DHT22;7321;50.802;4.336;2022-07-09T01:50:42;19.80;99.90
14471;DHT22;7321;50.802;4.336;2022-07-09T01:53:08;19.70;99.90
14471;DHT22;7321;50.802;4.336;2022-07-09T01:55:34;19.80;99.90
14471;DHT22;7321;50.802;4.336;2022-07-09T01:57:59;19.70;99.90
14471;DHT22;7321;50.802;4.336;2022-07-09T02:00:25;19.80;99.90
14471;DHT22;7321;50.802;4.336;2022-07-09T02:02:54;19.70;99.90
14471;DHT22;7321;50.802;4.336;2022-07-09T02:05:20;19.70;99.90
14471;DHT22;7321;50.802;4.336;2022-07-09T02:07:46;19.70;99.90
14471;DHT22;7321;50.802;4.336;2022-07-09T02:10:12;19.60;99.90
14471;DHT22;7321;50.802;4.336;2022-07-09T02:12:39;19.50;99.90
14471;DHT22;7321;50.802;4.336;2022-07-09T02:15:06;19.50;99.90
14471;DHT22;7321;50.802;4.336;2022-07-09T02:17:34;19.50;99.90
14471;DHT22;7321;50.802;4.336;2022-07-09T02:20:00;19.60;99.90
14471;DHT22;7321;50.802;4.336;2022-07-09T02:22:26;19.60;99.90
14471;DHT22;7321;50.802;4.336;2022-07-09T02:24:53;19.60;99.90
14471;DHT22;7321;50.802;4.336;2022-07-09T02:27:18;19.60;99.90
14471;DHT22;7321;50.802;4.336;2022-07-09T02:29:44;19.60;99.90
14471;DHT22;7321;50.802;4.336;2022-07-09T02:32:10;19.50;99.90
14471;DHT22;7321;50.802;4.336;2022-07-09T02:34:37;19.30;99.90
14471;DHT22;7321;50.802;4.336;2022-07-09T02:37:04;19.20;99.90
14471;DHT22;7321;50.802;4.336;2022-07-09T02:39:30;19.20;99.90
14471;DHT22;7321;50.802;4.336;2022-07-09T02:41:55;19.30;99.90
14471;DHT22;7321;50.802;4.336;2022-07-09T02:44:21;19.40;99.90
14471;DHT22;7321;50.802;4.336;2022-07-09T02:46:47;19.40;99.90
14471;DHT22;7321;50.802;4.336;2022-07-09T02:49:13;19.50;99.90
14471;DHT22;7321;50.802;4.336;2022-07-09T02:51:39;19.50;99.90
14471;DHT22;7321;50.802;4.336;2022-07-09T02:54:05;19.40;99.90
14471;DHT22;7321;50.802;4.336;2022-07-09T02:56:31;19.40;99.90
14471;DHT22;7321;50.802;4.336;2022-07-09T02:58:59;19.50;99.90
14471;DHT22;7321;50.802;4.336;2022-07-09T03:01:25;19.50;99.90
14471;DHT22;7321;50.802;4.336;2022-07-09T03:03:51;19.40;99.90
14471;DHT22;7321;50.802;4.336;2022-07-09T03:06:17;19.40;99.90
14471;DHT22;7321;50.802;4.336;2022-07-09T03:08:43;19.40;99.90
14471;DHT22;7321;50.802;4.336;2022-07-09T03:11:09;19.40;99.90
14471;DHT22;7321;50.802;4.336;2022-07-09T03:13:36;19.40;99.90
14471;DHT22;7321;50.802;4.336;2022-07-09T03:16:05;19.40;99.90
14471;DHT22;7321;50.802;4.336;2022-07-09T03:18:32;19.40;99.90
14471;DHT22;7321;50.802;4.336;2022-07-09T03:20:59;19.40;99.90
14471;DHT22;7321;50.802;4.336;2022-07-09T03:23:24;19.40;99.90
14471;DHT22;7321;50.802;4.336;2022-07-09T03:25:50;19.30;99.90
14471;DHT22;7321;50.802;4.336;2022-07-09T03:28:16;19.30;99.90
14471;DHT22;7321;50.802;4.336;2022-07-09T03:30:42;19.30;99.90
14471;DHT22;7321;50.802;4.336;2022-07-09T03:33:08;19.40;99.90
14471;DHT22;7321;50.802;4.336;2022-07-09T03:35:33;19.40;99.90
14471;DHT22;7321;50.802;4.336;2022-07-09T03:37:59;19.30;99.90
14471;DHT22;7321;50.802;4.336;2022-07-09T03:40:25;19.30;99.90
14471;DHT22;7321;50.802;4.336;2022-07-09T03:42:51;19.20;99.90
14471;DHT22;7321;50.802;4.336;2022-07-09T03:45:17;19.10;99.90
14471;DHT22;7321;50.802;4.336;2022-07-09T03:47:43;19.10;99.90
14471;DHT22;7321;50.802;4.336;2022-07-09T03:50:09;19.10;99.90
14471;DHT22;7321;50.802;4.336;2022-07-09T03:52:35;19.00;99.90
14471;DHT22;7321;50.802;4.336;2022-07-09T03:55:01;18.90;99.90
14471;DHT22;7321;50.802;4.336;2022-07-09T03:57:26;18.90;99.90
14471;DHT22;7321;50.802;4.336;2022-07-09T03:59:52;18.90;99.90
14471;DHT22;7321;50.802;4.336;2022-07-09T04:02:18;19.10;99.90
14471;DHT22;7321;50.802;4.336;2022-07-09T04:04:43;19.10;99.90
14471;DHT22;7321;50.802;4.336;2022-07-09T04:07:09;19.10;99.90
14471;DHT22;7321;50.802;4.336;2022-07-09T04:09:35;19.20;99.90
14471;DHT22;7321;50.802;4.336;2022-07-09T04:12:01;19.20;99.90
14471;DHT22;7321;50.802;4.336;2022-07-09T04:14:27;19.20;99.90
14471;DHT22;7321;50.802;4.336;2022-07-09T04:16:52;19.30;99.90
14471;DHT22;7321;50.802;4.336;2022-07-09T04:19:18;19.20;99.90
14471;DHT22;7321;50.802;4.336;2022-07-09T04:21:44;19.30;99.90
14471;DHT22;7321;50.802;4.336;2022-07-09T04:24:10;19.30;99.90
14471;DHT22;7321;50.802;4.336;2022-07-09T04:26:36;19.20;99.90
14471;DHT22;7321;50.802;4.336;2022-07-09T04:29:02;19.10;99.90
14471;DHT22;7321;50.802;4.336;2022-07-09T04:31:28;19.20;99.90
14471;DHT22;7321;50.802;4.336;2022-07-09T04:33:53;19.20;99.90
14471;DHT22;7321;50.802;4.336;2022-07-09T04:36:19;19.30;99.90
14471;DHT22;7321;50.802;4.336;2022-07-09T04:38:45;19.30;99.90
14471;DHT22;7321;50.802;4.336;2022-07-09T04:41:11;19.30;99.90
14471;DHT22;7321;50.802;4.336;2022-07-09T04:43:37;19.40;99.90
14471;DHT22;7321;50.802;4.336;2022-07-09T04:46:03;19.50;99.90
14471;DHT22;7321;50.802;4.336;2022-07-09T04:48:29;19.50;99.90
14471;DHT22;7321;50.802;4.336;2022-07-09T04:50:55;19.30;99.90
14471;DHT22;7321;50.802;4.336;2022-07-09T04:53:21;19.40;99.90
14471;DHT22;7321;50.802;4.336;2022-07-09T04:55:47;19.60;99.90
14471;DHT22;7321;50.802;4.336;2022-07-09T04:58:15;19.60;99.90
14471;DHT22;7321;50.802;4.336;2022-07-09T05:00:41;19.60;99.90
14471;DHT22;7321;50.802;4.336;2022-07-09T05:03:07;19.70;99.90
14471;DHT22;7321;50.802;4.336;2022-07-09T05:05:33;19.70;99.90
14471;DHT22;7321;50.802;4.336;2022-07-09T05:07:58;19.60;99.90
14471;DHT22;7321;50.802;4.336;2022-07-09T05:10:24;19.70;99.90
14471;DHT22;7321;50.802;4.336;2022-07-09T05:12:50;19.70;99.90
14471;DHT22;7321;50.802;4.336;2022-07-09T05:15:16;19.80;99.90
14471;DHT22;7321;50.802;4.336;2022-07-09T05:17:42;19.90;99.90
14471;DHT22;7321;50.802;4.336;2022-07-09T05:20:08;20.00;99.90
14471;DHT22;7321;50.802;4.336;2022-07-09T05:22:35;20.10;99.90
14471;DHT22;7321;50.802;4.336;2022-07-09T05:25:02;20.20;99.90
14471;DHT22;7321;50.802;4.336;2022-07-09T05:27:29;20.30;99.90
14471;DHT22;7321;50.802;4.336;2022-07-09T05:29:55;20.30;99.90
14471;DHT22;7321;50.802;4.336;2022-07-09T05:32:20;20.20;99.90
14471;DHT22;7321;50.802;4.336;2022-07-09T05:34:46;20.20;99.90
14471;DHT22;7321;50.802;4.336;2022-07-09T05:37:12;20.20;99.90
14471;DHT22;7321;50.802;4.336;2022-07-09T05:39:38;20.20;99.90
14471;DHT22;7321;50.802;4.336;2022-07-09T05:42:04;20.30;99.90
14471;DHT22;7321;50.802;4.336;2022-07-09T05:44:30;20.40;99.90
14471;DHT22;7321;50.802;4.336;2022-07-09T05:46:56;20.50;99.90
14471;DHT22;7321;50.802;4.336;2022-07-09T05:49:22;20.60;99.90
14471;DHT22;7321;50.802;4.336;2022-07-09T05:51:48;20.60;99.90
14471;DHT22;7321;50.802;4.336;2022-07-09T05:54:14;20.60;99.90
14471;DHT22;7321;50.802;4.336;2022-07-09T05:56:40;20.60;99.90
14471;DHT22;7321;50.802;4.336;2022-07-09T05:59:07;20.70;99.90
14471;DHT22;7321;50.802;4.336;2022-07-09T06:01:32;20.70;99.90
14471;DHT22;7321;50.802;4.336;2022-07-09T06:03:58;20.70;99.90
14471;DHT22;7321;50.802;4.336;2022-07-09T06:06:24;20.80;99.90
14471;DHT22;7321;50.802;4.336;2022-07-09T06:08:50;21.00;99.90
14471;DHT22;7321;50.802;4.336;2022-07-09T06:11:16;21.00;99.90
14471;DHT22;7321;50.802;4.336;2022-07-09T06:13:41;21.10;99.90
14471;DHT22;7321;50.802;4.336;2022-07-09T06:16:07;21.10;99.90
14471;DHT22;7321;50.802;4.336;2022-07-09T06:18:33;21.10;99.90
14471;DHT22;7321;50.802;4.336;2022-07-09T06:20:58;21.20;99.90
14471;DHT22;7321;50.802;4.336;2022-07-09T06:23:26;21.30;99.90
14471;DHT22;7321;50.802;4.336;2022-07-09T06:25:51;21.50;99.90
14471;DHT22;7321;50.802;4.336;2022-07-09T06:28:17;21.70;99.90
14471;DHT22;7321;50.802;4.336;2022-07-09T06:30:43;21.90;99.90
14471;DHT22;7321;50.802;4.336;2022-07-09T06:33:09;22.00;99.90
14471;DHT22;7321;50.802;4.336;2022-07-09T06:35:35;22.20;99.90
14471;DHT22;7321;50.802;4.336;2022-07-09T06:38:01;22.30;99.90
14471;DHT22;7321;50.802;4.336;2022-07-09T06:40:26;22.50;99.90
14471;DHT22;7321;50.802;4.336;2022-07-09T06:42:52;22.60;99.90
14471;DHT22;7321;50.802;4.336;2022-07-09T06:45:18;22.60;99.90
14471;DHT22;7321;50.802;4.336;2022-07-09T06:47:44;22.60;99.90
14471;DHT22;7321;50.802;4.336;2022-07-09T06:50:10;22.70;99.90
14471;DHT22;7321;50.802;4.336;2022-07-09T06:52:36;22.70;99.90
14471;DHT22;7321;50.802;4.336;2022-07-09T06:55:01;23.00;99.90
14471;DHT22;7321;50.802;4.336;2022-07-09T06:57:27;23.00;99.90
14471;DHT22;7321;50.802;4.336;2022-07-09T06:59:54;23.00;99.90
14471;DHT22;7321;50.802;4.336;2022-07-09T07:02:20;23.20;99.90
14471;DHT22;7321;50.802;4.336;2022-07-09T07:04:46;23.40;99.90
14471;DHT22;7321;50.802;4.336;2022-07-09T07:07:11;23.40;99.90
14471;DHT22;7321;50.802;4.336;2022-07-09T07:09:37;23.60;99.90
14471;DHT22;7321;50.802;4.336;2022-07-09T07:12:03;23.80;99.90
14471;DHT22;7321;50.802;4.336;2022-07-09T07:14:29;23.80;99.90
14471;DHT22;7321;50.802;4.336;2022-07-09T07:16:55;23.60;99.90
14471;DHT22;7321;50.802;4.336;2022-07-09T07:19:23;23.70;99.90
14471;DHT22;7321;50.802;4.336;2022-07-09T07:21:49;23.90;99.90
14471;DHT22;7321;50.802;4.336;2022-07-09T07:24:15;24.10;99.90
14471;DHT22;7321;50.802;4.336;2022-07-09T07:26:41;24.00;99.90
14471;DHT22;7321;50.802;4.336;2022-07-09T07:29:06;23.70;99.90
14471;DHT22;7321;50.802;4.336;2022-07-09T07:31:32;23.80;99.90
14471;DHT22;7321;50.802;4.336;2022-07-09T07:33:58;24.00;99.90
14471;DHT22;7321;50.802;4.336;2022-07-09T07:36:26;24.20;99.90
14471;DHT22;7321;50.802;4.336;2022-07-09T07:38:52;24.40;99.90
14471;DHT22;7321;50.802;4.336;2022-07-09T07:41:18;24.60;99.90
14471;DHT22;7321;50.802;4.336;2022-07-09T07:43:44;24.60;99.90
14471;DHT22;7321;50.802;4.336;2022-07-09T07:46:11;24.80;99.90
14471;DHT22;7321;50.802;4.336;2022-07-09T07:48:37;24.70;99.90
14471;DHT22;7321;50.802;4.336;2022-07-09T07:51:03;24.70;99.90
14471;DHT22;7321;50.802;4.336;2022-07-09T07:53:32;24.80;99.90
14471;DHT22;7321;50.802;4.336;2022-07-09T07:56:00;25.00;99.90
14471;DHT22;7321;50.802;4.336;2022-07-09T07:58:26;25.00;99.90
14471;DHT22;7321;50.802;4.336;2022-07-09T08:00:52;25.10;99.90
14471;DHT22;7321;50.802;4.336;2022-07-09T08:03:18;25.00;99.90
14471;DHT22;7321;50.802;4.336;2022-07-09T08:05:43;24.80;99.90
14471;DHT22;7321;50.802;4.336;2022-07-09T08:08:09;24.80;99.90
14471;DHT22;7321;50.802;4.336;2022-07-09T08:10:35;24.80;99.90
14471;DHT22;7321;50.802;4.336;2022-07-09T08:13:01;24.80;99.90
14471;DHT22;7321;50.802;4.336;2022-07-09T08:15:26;24.80;99.90
14471;DHT22;7321;50.802;4.336;2022-07-09T08:17:52;24.50;99.90
14471;DHT22;7321;50.802;4.336;2022-07-09T08:20:19;24.50;99.90
14471;DHT22;7321;50.802;4.336;2022-07-09T08:22:45;24.30;99.90
14471;DHT22;7321;50.802;4.336;2022-07-09T08:25:11;24.00;99.90
14471;DHT22;7321;50.802;4.336;2022-07-09T08:27:37;23.80;99.90
14471;DHT22;7321;50.802;4.336;2022-07-09T08:30:03;23.80;99.90
14471;DHT22;7321;50.802;4.336;2022-07-09T08:32:29;24.00;99.90
14471;DHT22;7321;50.802;4.336;2022-07-09T08:34:55;23.80;99.90
14471;DHT22;7321;50.802;4.336;2022-07-09T08:37:21;23.80;99.90
14471;DHT22;7321;50.802;4.336;2022-07-09T08:39:46;23.90;99.90
14471;DHT22;7321;50.802;4.336;2022-07-09T08:42:12;24.00;99.90
14471;DHT22;7321;50.802;4.336;2022-07-09T08:44:39;24.10;99.90
14471;DHT22;7321;50.802;4.336;2022-07-09T08:47:12;24.40;99.90
14471;DHT22;7321;50.802;4.336;2022-07-09T08:49:40;24.60;99.90
14471;DHT22;7321;50.802;4.336;2022-07-09T08:52:07;24.70;99.90
14471;DHT22;7321;50.802;4.336;2022-07-09T08:54:35;25.00;99.90
14471;DHT22;7321;50.802;4.336;2022-07-09T08:57:05;25.30;99.90
14471;DHT22;7321;50.802;4.336;2022-07-09T08:59:32;25.50;99.90
14471;DHT22;7321;50.802;4.336;2022-07-09T09:02:04;25.60;99.90
14471;DHT22;7321;50.802;4.336;2022-07-09T09:04:30;25.70;99.90
14471;DHT22;7321;50.802;4.336;2022-07-09T09:06:56;25.70;99.90
14471;DHT22;7321;50.802;4.336;2022-07-09T09:09:21;25.80;99.90
14471;DHT22;7321;50.802;4.336;2022-07-09T09:11:49;25.40;99.90
14471;DHT22;7321;50.802;4.336;2022-07-09T09:14:21;25.10;99.90
14471;DHT22;7321;50.802;4.336;2022-07-09T09:16:48;24.90;99.90
14471;DHT22;7321;50.802;4.336;2022-07-09T09:19:14;24.80;99.90
14471;DHT22;7321;50.802;4.336;2022-07-09T09:21:39;24.80;99.90
14471;DHT22;7321;50.802;4.336;2022-07-09T09:24:06;25.10;99.90
14471;DHT22;7321;50.802;4.336;2022-07-09T09:26:32;25.30;99.90
14471;DHT22;7321;50.802;4.336;2022-07-09T09:29:02;25.20;99.90
14471;DHT22;7321;50.802;4.336;2022-07-09T09:31:33;25.00;99.90
14471;DHT22;7321;50.802;4.336;2022-07-09T09:34:11;24.90;99.90
14471;DHT22;7321;50.802;4.336;2022-07-09T09:36:42;24.60;99.90
14471;DHT22;7321;50.802;4.336;2022-07-09T09:39:26;24.60;99.90
14471;DHT22;7321;50.802;4.336;2022-07-09T09:41:54;24.60;99.90
14471;DHT22;7321;50.802;4.336;2022-07-09T09:44:24;24.70;99.90
14471;DHT22;7321;50.802;4.336;2022-07-09T09:46:52;24.70;99.90
14471;DHT22;7321;50.802;4.336;2022-07-09T09:49:18;25.10;99.90
14471;DHT22;7321;50.802;4.336;2022-07-09T09:54:17;25.50;99.90
14471;DHT22;7321;50.802;4.336;2022-07-09T09:56:44;25.60;99.90
14471;DHT22;7321;50.802;4.336;2022-07-09T09:59:10;25.70;99.90
14471;DHT22;7321;50.802;4.336;2022-07-09T10:01:38;25.90;99.90
14471;DHT22;7321;50.802;4.336;2022-07-09T10:04:05;25.90;99.90
14471;DHT22;7321;50.802;4.336;2022-07-09T10:06:33;25.80;99.90
14471;DHT22;7321;50.802;4.336;2022-07-09T10:09:01;26.10;99.90
14471;DHT22;7321;50.802;4.336;2022-07-09T10:11:41;26.10;99.90
14471;DHT22;7321;50.802;4.336;2022-07-09T10:14:08;26.20;99.90
14471;DHT22;7321;50.802;4.336;2022-07-09T10:16:39;26.00;99.90
14471;DHT22;7321;50.802;4.336;2022-07-09T10:19:05;25.60;99.90
14471;DHT22;7321;50.802;4.336;2022-07-09T10:21:40;25.40;99.90
14471;DHT22;7321;50.802;4.336;2022-07-09T10:24:07;25.80;99.90
14471;DHT22;7321;50.802;4.336;2022-07-09T10:26:45;25.50;99.90
14471;DHT22;7321;50.802;4.336;2022-07-09T10:29:28;25.40;99.90
14471;DHT22;7321;50.802;4.336;2022-07-09T10:31:55;25.40;99.90
14471;DHT22;7321;50.802;4.336;2022-07-09T10:37:00;25.00;99.90
14471;DHT22;7321;50.802;4.336;2022-07-09T10:39:27;25.00;99.90
14471;DHT22;7321;50.802;4.336;2022-07-09T10:42:17;24.90;99.90
14471;DHT22;7321;50.802;4.336;2022-07-09T10:44:43;24.70;99.90
14471;DHT22;7321;50.802;4.336;2022-07-09T10:47:10;24.70;99.90
14471;DHT22;7321;50.802;4.336;2022-07-09T10:49:37;24.80;99.90
14471;DHT22;7321;50.802;4.336;2022-07-09T10:52:04;25.00;99.90
14471;DHT22;7321;50.802;4.336;2022-07-09T10:54:30;25.30;99.90
14471;DHT22;7321;50.802;4.336;2022-07-09T10:56:56;25.30;99.90
14471;DHT22;7321;50.802;4.336;2022-07-09T10:59:23;25.20;99.90
14471;DHT22;7321;50.802;4.336;2022-07-09T11:01:50;25.00;99.90
14471;DHT22;7321;50.802;4.336;2022-07-09T11:04:27;25.00;99.90
14471;DHT22;7321;50.802;4.336;2022-07-09T11:06:53;25.30;99.90
14471;DHT22;7321;50.802;4.336;2022-07-09T11:09:19;25.40;99.90
14471;DHT22;7321;50.802;4.336;2022-07-09T11:11:45;25.50;99.90
14471;DHT22;7321;50.802;4.336;2022-07-09T11:14:13;25.20;99.90
14471;DHT22;7321;50.802;4.336;2022-07-09T11:16:39;24.90;99.90
14471;DHT22;7321;50.802;4.336;2022-07-09T11:21:40;25.10;99.90
14471;DHT22;7321;50.802;4.336;2022-07-09T11:24:19;25.40;99.90
14471;DHT22;7321;50.802;4.336;2022-07-09T11:26:48;25.40;99.90
14471;DHT22;7321;50.802;4.336;2022-07-09T11:29:16;25.20;99.90
14471;DHT22;7321;50.802;4.336;2022-07-09T11:31:50;24.90;99.90
14471;DHT22;7321;50.802;4.336;2022-07-09T11:34:17;25.10;99.90
14471;DHT22;7321;50.802;4.336;2022-07-09T11:36:44;25.00;99.90
14471;DHT22;7321;50.802;4.336;2022-07-09T11:41:50;24.40;99.90
14471;DHT22;7321;50.802;4.336;2022-07-09T11:44:27;24.30;99.90
14471;DHT22;7321;50.802;4.336;2022-07-09T11:47:09;24.40;99.90
14471;DHT22;7321;50.802;4.336;2022-07-09T11:49:41;24.50;99.90
14471;DHT22;7321;50.802;4.336;2022-07-09T11:52:24;24.30;99.90
14471;DHT22;7321;50.802;4.336;2022-07-09T11:55:01;24.30;99.90
14471;DHT22;7321;50.802;4.336;2022-07-09T11:57:28;24.40;99.90
14471;DHT22;7321;50.802;4.336;2022-07-09T11:59:55;24.40;99.90
14471;DHT22;7321;50.802;4.336;2022-07-09T12:02:36;24.40;99.90
14471;DHT22;7321;50.802;4.336;2022-07-09T12:05:09;24.30;99.90
14471;DHT22;7321;50.802;4.336;2022-07-09T12:07:35;24.10;99.90
14471;DHT22;7321;50.802;4.336;2022-07-09T12:10:09;24.20;99.90
14471;DHT22;7321;50.802;4.336;2022-07-09T12:12:36;24.50;99.90
14471;DHT22;7321;50.802;4.336;2022-07-09T12:15:04;24.60;99.90
14471;DHT22;7321;50.802;4.336;2022-07-09T12:17:31;24.50;99.90
14471;DHT22;7321;50.802;4.336;2022-07-09T12:19:58;24.40;99.90
14471;DHT22;7321;50.802;4.336;2022-07-09T12:22:24;24.00;99.90
14471;DHT22;7321;50.802;4.336;2022-07-09T12:24:52;24.10;99.90
14471;DHT22;7321;50.802;4.336;2022-07-09T12:27:18;24.00;99.90
14471;DHT22;7321;50.802;4.336;2022-07-09T12:29:46;24.20;99.90
14471;DHT22;7321;50.802;4.336;2022-07-09T12:32:13;24.40;99.90
14471;DHT22;7321;50.802;4.336;2022-07-09T12:34:39;24.40;99.90
14471;DHT22;7321;50.802;4.336;2022-07-09T12:37:04;24.50;99.90
14471;DHT22;7321;50.802;4.336;2022-07-09T12:39:30;24.50;99.90
14471;DHT22;7321;50.802;4.336;2022-07-09T12:41:56;24.20;99.90
14471;DHT22;7321;50.802;4.336;2022-07-09T12:44:24;24.20;99.90
14471;DHT22;7321;50.802;4.336;2022-07-09T12:46:51;24.20;99.90
14471;DHT22;7321;50.802;4.336;2022-07-09T12:49:17;24.20;99.90
14471;DHT22;7321;50.802;4.336;2022-07-09T12:51:43;23.90;99.90
14471;DHT22;7321;50.802;4.336;2022-07-09T12:54:09;23.80;99.90
14471;DHT22;7321;50.802;4.336;2022-07-09T12:56:35;23.90;99.90
14471;DHT22;7321;50.802;4.336;2022-07-09T12:59:01;23.80;99.90
14471;DHT22;7321;50.802;4.336;2022-07-09T13:01:27;23.70;99.90
14471;DHT22;7321;50.802;4.336;2022-07-09T13:03:53;23.70;99.90
14471;DHT22;7321;50.802;4.336;2022-07-09T13:06:19;23.80;99.90
14471;DHT22;7321;50.802;4.336;2022-07-09T13:09:01;24.00;99.90
14471;DHT22;7321;50.802;4.336;2022-07-09T13:11:28;23.90;99.90
14471;DHT22;7321;50.802;4.336;2022-07-09T13:13:53;23.90;99.90
14471;DHT22;7321;50.802;4.336;2022-07-09T13:16:20;23.90;99.90
14471;DHT22;7321;50.802;4.336;2022-07-09T13:18:46;23.90;99.90
14471;DHT22;7321;50.802;4.336;2022-07-09T13:21:12;24.00;99.90
14471;DHT22;7321;50.802;4.336;2022-07-09T13:23:37;23.70;99.90
14471;DHT22;7321;50.802;4.336;2022-07-09T13:26:03;23.40;99.90
14471;DHT22;7321;50.802;4.336;2022-07-09T13:28:29;23.40;99.90
14471;DHT22;7321;50.802;4.336;2022-07-09T13:30:55;23.70;99.90
14471;DHT22;7321;50.802;4.336;2022-07-09T13:33:21;23.60;99.90
14471;DHT22;7321;50.802;4.336;2022-07-09T13:35:47;23.10;99.90
14471;DHT22;7321;50.802;4.336;2022-07-09T13:38:12;23.00;99.90
14471;DHT22;7321;50.802;4.336;2022-07-09T13:40:38;23.20;99.90
14471;DHT22;7321;50.802;4.336;2022-07-09T13:43:04;23.30;99.90
14471;DHT22;7321;50.802;4.336;2022-07-09T13:45:30;23.40;99.90
14471;DHT22;7321;50.802;4.336;2022-07-09T13:47:56;23.40;99.90
14471;DHT22;7321;50.802;4.336;2022-07-09T13:50:22;23.50;99.90
14471;DHT22;7321;50.802;4.336;2022-07-09T13:52:48;23.80;99.90
14471;DHT22;7321;50.802;4.336;2022-07-09T13:55:14;24.10;99.90
14471;DHT22;7321;50.802;4.336;2022-07-09T13:57:40;24.40;99.90
14471;DHT22;7321;50.802;4.336;2022-07-09T14:00:07;24.60;99.90
14471;DHT22;7321;50.802;4.336;2022-07-09T14:02:33;24.20;99.90
14471;DHT22;7321;50.802;4.336;2022-07-09T14:05:03;24.00;99.90
14471;DHT22;7321;50.802;4.336;2022-07-09T14:07:29;23.90;99.90
14471;DHT22;7321;50.802;4.336;2022-07-09T14:09:55;23.90;99.90
14471;DHT22;7321;50.802;4.336;2022-07-09T14:12:21;23.90;99.90
14471;DHT22;7321;50.802;4.336;2022-07-09T14:14:49;23.80;99.90
14471;DHT22;7321;50.802;4.336;2022-07-09T14:17:15;23.70;99.90
14471;DHT22;7321;50.802;4.336;2022-07-09T14:19:41;23.60;99.90
14471;DHT22;7321;50.802;4.336;2022-07-09T14:22:07;23.40;99.90
14471;DHT22;7321;50.802;4.336;2022-07-09T14:24:33;23.40;99.90
14471;DHT22;7321;50.802;4.336;2022-07-09T14:26:59;23.40;99.90
14471;DHT22;7321;50.802;4.336;2022-07-09T14:29:26;23.40;99.90
14471;DHT22;7321;50.802;4.336;2022-07-09T14:31:52;23.30;99.90
14471;DHT22;7321;50.802;4.336;2022-07-09T14:34:18;23.20;99.90
14471;DHT22;7321;50.802;4.336;2022-07-09T14:36:44;23.10;99.90
14471;DHT22;7321;50.802;4.336;2022-07-09T14:39:10;23.00;99.90
14471;DHT22;7321;50.802;4.336;2022-07-09T14:41:36;23.00;99.90
14471;DHT22;7321;50.802;4.336;2022-07-09T14:44:03;23.00;99.90
14471;DHT22;7321;50.802;4.336;2022-07-09T14:46:29;23.30;99.90
14471;DHT22;7321;50.802;4.336;2022-07-09T14:48:55;23.30;99.90
14471;DHT22;7321;50.802;4.336;2022-07-09T14:51:21;23.30;99.90
14471;DHT22;7321;50.802;4.336;2022-07-09T14:53:47;23.50;99.90
14471;DHT22;7321;50.802;4.336;2022-07-09T14:56:13;23.20;99.90
14471;DHT22;7321;50.802;4.336;2022-07-09T14:58:39;23.20;99.90
14471;DHT22;7321;50.802;4.336;2022-07-09T15:01:05;23.20;99.90
14471;DHT22;7321;50.802;4.336;2022-07-09T15:03:31;23.50;99.90
14471;DHT22;7321;50.802;4.336;2022-07-09T15:05:57;23.80;99.90
14471;DHT22;7321;50.802;4.336;2022-07-09T15:08:23;24.10;99.90
14471;DHT22;7321;50.802;4.336;2022-07-09T15:10:48;24.10;99.90
14471;DHT22;7321;50.802;4.336;2022-07-09T15:13:14;23.90;99.90
14471;DHT22;7321;50.802;4.336;2022-07-09T15:15:40;23.80;99.90
14471;DHT22;7321;50.802;4.336;2022-07-09T15:18:06;23.80;99.90
14471;DHT22;7321;50.802;4.336;2022-07-09T15:20:32;23.70;99.90
14471;DHT22;7321;50.802;4.336;2022-07-09T15:22:58;23.60;99.90
14471;DHT22;7321;50.802;4.336;2022-07-09T15:25:25;23.60;99.90
14471;DHT22;7321;50.802;4.336;2022-07-09T15:27:51;23.70;99.90
14471;DHT22;7321;50.802;4.336;2022-07-09T15:30:17;23.60;99.90
14471;DHT22;7321;50.802;4.336;2022-07-09T15:32:45;23.60;99.90
14471;DHT22;7321;50.802;4.336;2022-07-09T15:35:11;23.80;99.90
14471;DHT22;7321;50.802;4.336;2022-07-09T15:37:39;24.10;99.90
14471;DHT22;7321;50.802;4.336;2022-07-09T15:40:05;24.30;99.90
14471;DHT22;7321;50.802;4.336;2022-07-09T15:42:31;24.20;99.90
14471;DHT22;7321;50.802;4.336;2022-07-09T15:44:57;24.20;99.90
14471;DHT22;7321;50.802;4.336;2022-07-09T15:47:23;24.30;99.90
14471;DHT22;7321;50.802;4.336;2022-07-09T15:49:49;24.30;99.90
14471;DHT22;7321;50.802;4.336;2022-07-09T15:52:15;24.30;99.90